Detall de PIREP

Printer-friendly versionPDF version

[2013/12/04 10:10:00]
Flight IATA:CT1005
Pilot Number:011
Company ICAO:CAT
Aircraft Type:B738/F
PAX:160
Departing Airport: LEVC
Destination Airport: EDSB
Alternate Airport:EDDS
Online: VATSIM
Route:SOPET UM985 RODRA UN861 FISTO UY156 ADABI UN858 LIMGO UZ111 PITES UM150 KRH
Flight Level:F330
No Slew and time accel
No pause
Crash detect
Detect pilot in Cockpit between each 30 and 45 minutes
10:10 Zero fuel Weight: 134991 Lbs, Fuel Weight: 24285 Lbs
10:10 VATSIM:LEVC 041000Z VRB01KT CAVOK 13/06 Q1028 NOSIG
10:10 VATSIM:EDSB 040950Z 22004KT 4000 BR BKN009 01/00 Q1029
10:16 Parking Brakes off
10:29 Take-off
10:29 Take off Weight: 158253 Lbs
10:29 Wind: 347º @ 002 Knots Heading: 115º
10:29 POS N39º 29´ 15´´ W000º 28´ 36´´
10:29 Flaps:5 at 169 Knots
10:29 Gear Up: 179 Knots
10:30 Flaps:4 at 233 Knots
10:30 Flaps:3 at 236 Knots
10:30 Flaps:2 at 239 Knots
10:30 Flaps:1at 240 Knots
10:30 Flaps:0 at 241 Knots
10:44 Wind:323º@009 Knots Heading: 046º Ground Speed: 398 Knots Altitude 28490 ft
10:47 TOC
10:47 Fuel Weight: 19790 Lb
10:59 Wind:318º@027 Knots Heading: 352º Ground Speed: 428 Knots Altitude 33418 ft
11:14 Wind:279º@004 Knots Heading: 352º Ground Speed: 441 Knots Altitude 33497 ft
11:29 Wind:356º@003 Knots Heading: 333º Ground Speed: 442 Knots Altitude 33494 ft
11:44 Wind:007º@010 Knots Heading: 013º Ground Speed: 428 Knots Altitude 33523 ft
11:59 Wind:248º@013 Knots Heading: 075º Ground Speed: 456 Knots Altitude 33497 ft
12:14 Wind:209º@021 Knots Heading: 078º Ground Speed: 456 Knots Altitude 33467 ft
12:25 TOD
12:25 Fuel Weight: 10664 Lb
12:29 Wind:251º@023 Knots Heading: 122º Ground Speed: 422 Knots Altitude 25646 ft
12:44 Wind:221º@011 Knots Heading: 012º Ground Speed: 276 Knots Altitude 5226 ft
12:44 Flaps:1 at 256Knots
12:44 Flaps:2 at 256 Knots
12:46 Flaps:3 at 231 Knots
12:46 Flaps:4 at 227 Knots
12:47 Flaps:5 at 218 Knots
12:47 Flaps:6 at 191 Knots
12:47 Gear Down: 178 Knots
12:48 Flaps:7 at 165 Knots
12:49 Flaps:8 at 150 Knots
12:52 Gear Up: 138 Knots
12:52 Gear Down: 137 Knots
12:52 TouchDown:Rate -302 ft/min Speed: 123 Knots
12:53 VATSIM:EDSB 041220Z 21007KT 8000 BKN026 03/02 Q1028
12:53 Land
12:53 Wind:211º@007 Knots
12:53 Heading: 172º
12:53 Flight Duration: 02:24
12:53 Landing Weight: 144239 Lbs
12:53 POS N48º 46´ 34´´ E008º 04´ 39´´
12:55 Parking brakes on
12:55 Block to Block Duration: 02:39
12:55 Final Fuel: 9054 Lbls
12:55 Spent Fuel: 15231 Lbls
12:55 Flight Length: 822 NM
12:55 TOD Land Length: 91 NM

Exportar CSV

Powered by Drupal - Modified by Danger4k